createdAt,value
2023-02-11T00:01:32.930Z,102309.98
2023-02-11T00:04:02.381Z,102300.05
2023-02-11T00:06:32.600Z,102290.69
2023-02-11T00:09:01.872Z,102296.45
2023-02-11T00:11:30.734Z,102301.48
2023-02-11T00:14:05.461Z,102298.59
2023-02-11T00:16:34.175Z,102291.73
2023-02-11T00:19:05.663Z,102289.79
2023-02-11T00:21:35.922Z,102278.98
2023-02-11T00:24:04.322Z,102260.24
2023-02-11T00:26:35.458Z,102261.77
2023-02-11T00:29:04.684Z,102262.69
2023-02-11T00:31:33.490Z,102259.66
2023-02-11T00:34:01.795Z,102252.77
2023-02-11T00:36:30.946Z,102245.20
2023-02-11T00:39:00.205Z,102227.00
2023-02-11T00:41:29.714Z,102210.21
2023-02-11T00:44:01.103Z,102204.51
2023-02-11T00:46:29.424Z,102192.23
2023-02-11T00:48:58.061Z,102179.67
2023-02-11T00:51:29.507Z,102176.03
2023-02-11T00:53:57.544Z,102169.85
2023-02-11T00:56:25.617Z,102161.25
2023-02-11T00:58:54.329Z,102157.47
2023-02-11T01:01:22.444Z,102153.45
2023-02-11T01:03:50.927Z,102148.41
2023-02-11T01:06:19.260Z,102140.79
2023-02-11T01:08:47.292Z,102138.42
2023-02-11T01:11:18.657Z,102126.99
2023-02-11T01:13:48.853Z,102126.34
2023-02-11T01:16:18.087Z,102116.35
2023-02-11T01:18:47.428Z,102118.73
2023-02-11T01:21:16.332Z,102123.34
2023-02-11T01:23:44.582Z,102110.65
2023-02-11T01:26:13.427Z,102100.61
2023-02-11T01:28:41.471Z,102097.06
2023-02-11T01:31:09.584Z,102100.44
2023-02-11T01:33:37.667Z,102104.10
2023-02-11T01:36:08.271Z,102101.70
2023-02-11T01:38:36.969Z,102109.50
2023-02-11T01:41:08.359Z,102102.88
2023-02-11T01:43:43.516Z,102091.36
2023-02-11T01:46:28.157Z,102081.20
2023-02-11T01:49:02.783Z,102078.66
2023-02-11T01:51:38.999Z,102072.02
2023-02-11T01:54:39.687Z,102062.60
2023-02-11T01:57:25.077Z,102051.00
2023-02-11T02:00:24.312Z,102050.58
2023-02-11T02:02:55.404Z,102039.20
2023-02-11T02:05:35.047Z,102027.86
2023-02-11T02:08:03.143Z,102020.88
2023-02-11T02:10:31.706Z,102013.23
2023-02-11T02:12:59.773Z,102010.94
2023-02-11T02:15:34.655Z,102001.35
2023-02-11T02:18:09.854Z,102000.40
2023-02-11T02:20:50.753Z,102002.71
2023-02-11T02:23:39.058Z,101999.86
2023-02-11T02:26:26.174Z,101991.61
2023-02-11T02:28:57.003Z,101992.97
2023-02-11T02:31:39.962Z,101987.70
2023-02-11T02:34:20.798Z,101984.02
2023-02-11T02:36:58.248Z,101973.05
2023-02-11T02:39:31.825Z,101973.86
2023-02-11T02:42:00.033Z,101967.48
2023-02-11T02:44:29.204Z,101960.75
2023-02-11T02:46:58.434Z,101960.10
2023-02-11T02:49:26.449Z,101962.61
2023-02-11T02:52:19.433Z,101955.29
2023-02-11T02:55:01.913Z,101946.99
2023-02-11T02:57:45.684Z,101940.33
2023-02-11T03:00:25.755Z,101929.75
2023-02-11T03:03:18.918Z,101922.57
2023-02-11T03:05:57.507Z,101919.41
2023-02-11T03:08:33.585Z,101918.05
2023-02-11T03:11:03.161Z,101916.59
2023-02-11T03:13:36.024Z,101917.88
2023-02-11T03:16:28.145Z,101904.29
2023-02-11T03:19:21.257Z,101894.64
2023-02-11T03:21:52.110Z,101887.14
2023-02-11T03:24:36.990Z,101884.14
2023-02-11T03:27:20.621Z,101883.86
2023-02-11T03:30:05.693Z,101883.10
2023-02-11T03:32:40.276Z,101880.04
2023-02-11T03:35:23.441Z,101875.43
2023-02-11T03:38:00.621Z,101868.83
2023-02-11T03:40:32.794Z,101858.09
2023-02-11T03:43:07.361Z,101845.06
2023-02-11T03:45:37.470Z,101840.94
2023-02-11T03:48:14.712Z,101834.42
2023-02-11T03:50:45.739Z,101834.23
2023-02-11T03:53:14.973Z,101829.43
2023-02-11T03:55:44.382Z,101827.28
2023-02-11T03:58:12.452Z,101822.63
2023-02-11T04:00:42.689Z,101815.24
2023-02-11T04:03:11.648Z,101811.64
2023-02-11T04:05:40.733Z,101804.25
2023-02-11T04:08:08.903Z,101807.48
2023-02-11T04:10:37.188Z,101807.98
2023-02-11T04:13:05.137Z,101810.09
2023-02-11T04:15:33.632Z,101804.78
2023-02-11T04:18:03.545Z,101793.02
2023-02-11T04:20:31.584Z,101784.76
2023-02-11T04:22:59.679Z,101786.67
2023-02-11T04:25:27.830Z,101788.51
2023-02-11T04:27:55.950Z,101782.38
2023-02-11T04:30:25.335Z,101780.42
2023-02-11T04:32:54.520Z,101772.05
2023-02-11T04:35:22.629Z,101768.79
2023-02-11T04:37:50.662Z,101761.72
2023-02-11T04:40:18.852Z,101752.68
2023-02-11T04:42:46.931Z,101748.91
2023-02-11T04:45:15.006Z,101748.97
2023-02-11T04:47:43.055Z,101759.02
2023-02-11T04:50:11.222Z,101747.63
2023-02-11T04:52:39.312Z,101741.98
2023-02-11T04:55:07.577Z,101743.80
2023-02-11T04:57:35.612Z,101742.27
2023-02-11T05:00:04.243Z,101740.37
2023-02-11T05:02:32.465Z,101739.11
2023-02-11T05:05:00.581Z,101739.33
2023-02-11T05:07:28.737Z,101740.89
2023-02-11T05:09:56.912Z,101737.55
2023-02-11T05:12:24.981Z,101740.64
2023-02-11T05:14:53.053Z,101733.83
2023-02-11T05:17:21.029Z,101733.56
2023-02-11T05:19:49.086Z,101727.80
2023-02-11T05:22:17.037Z,101723.11
2023-02-11T05:24:45.030Z,101710.71
2023-02-11T05:27:13.307Z,101707.98
2023-02-11T05:29:41.468Z,101707.29
2023-02-11T05:32:09.574Z,101696.44
2023-02-11T05:34:37.821Z,101684.40
2023-02-11T05:37:05.920Z,101667.33
2023-02-11T05:39:33.822Z,101671.98
2023-02-11T05:42:01.806Z,101676.81
2023-02-11T05:44:29.821Z,101684.70
2023-02-11T05:46:57.832Z,101676.86
2023-02-11T05:49:25.934Z,101678.37
2023-02-11T05:51:53.902Z,101680.11
2023-02-11T05:54:22.114Z,101673.50
2023-02-11T05:56:50.225Z,101667.30
2023-02-11T05:59:18.418Z,101667.05
2023-02-11T06:01:46.487Z,101668.29
2023-02-11T06:04:14.503Z,101672.02
2023-02-11T06:06:42.558Z,101666.48
2023-02-11T06:09:11.935Z,101667.43
2023-02-11T06:11:39.897Z,101667.58
2023-02-11T06:14:08.224Z,101673.50
2023-02-11T06:16:36.389Z,101671.21
2023-02-11T06:19:04.527Z,101666.64
2023-02-11T06:21:43.499Z,101661.99
2023-02-11T06:24:12.870Z,101659.40
2023-02-11T06:26:40.943Z,101660.67
2023-02-11T06:29:09.080Z,101655.96
2023-02-11T06:31:37.994Z,101648.41
2023-02-11T06:34:06.269Z,101640.12
2023-02-11T06:36:34.628Z,101631.46
2023-02-11T06:39:03.474Z,101624.02
2023-02-11T06:41:31.500Z,101624.33
2023-02-11T06:44:00.091Z,101619.71
2023-02-11T06:46:28.149Z,101620.27
2023-02-11T06:48:56.624Z,101616.61
2023-02-11T06:51:24.798Z,101613.01
2023-02-11T06:53:52.761Z,101607.00
2023-02-11T06:56:27.552Z,101610.98
2023-02-11T06:58:56.279Z,101608.92
2023-02-11T07:01:25.666Z,101604.84
2023-02-11T07:03:54.769Z,101614.88
2023-02-11T07:06:27.872Z,101626.31
2023-02-11T07:08:56.751Z,101627.57
2023-02-11T07:11:28.197Z,101626.79
2023-02-11T07:14:01.354Z,101630.05
2023-02-11T07:16:30.011Z,101632.84
2023-02-11T07:18:58.416Z,101641.17
2023-02-11T07:21:26.537Z,101636.79
2023-02-11T07:23:55.025Z,101631.88
2023-02-11T07:26:24.510Z,101622.73
2023-02-11T07:28:53.300Z,101615.19
2023-02-11T07:31:27.903Z,101615.40
2023-02-11T07:34:00.077Z,101622.84
2023-02-11T07:36:30.573Z,101615.77
2023-02-11T07:38:58.901Z,101615.45
2023-02-11T07:41:27.208Z,101608.30
2023-02-11T07:43:55.968Z,101604.39
2023-02-11T07:46:26.460Z,101592.52
2023-02-11T07:48:55.580Z,101579.38
2023-02-11T07:51:26.718Z,101577.72
2023-02-11T07:53:56.127Z,101578.41
2023-02-11T07:56:24.430Z,101570.08
2023-02-11T07:58:52.987Z,101572.15
2023-02-11T08:01:26.281Z,101579.98
2023-02-11T08:03:58.966Z,101572.05
2023-02-11T08:06:30.259Z,101559.34
2023-02-11T08:09:03.120Z,101571.00
2023-02-11T08:11:31.476Z,101568.96
2023-02-11T08:13:59.524Z,101554.62
2023-02-11T08:16:30.144Z,101557.02
2023-02-11T08:19:01.203Z,101554.84
2023-02-11T08:21:29.505Z,101550.60
2023-02-11T08:23:57.688Z,101566.30
2023-02-11T08:26:29.388Z,101547.80
2023-02-11T08:28:59.079Z,101541.55
2023-02-11T08:31:39.297Z,101536.90
2023-02-11T08:34:08.072Z,101529.45
2023-02-11T08:36:38.364Z,101526.91
2023-02-11T08:39:19.186Z,101528.05
2023-02-11T08:41:53.779Z,101525.52
2023-02-11T08:44:23.075Z,101518.04
2023-02-11T08:46:51.851Z,101525.02
2023-02-11T08:49:20.280Z,101518.40
2023-02-11T08:51:49.209Z,101506.93
2023-02-11T08:54:17.279Z,101493.28
2023-02-11T08:56:46.179Z,101472.23
2023-02-11T08:59:15.657Z,101475.50
2023-02-11T09:01:44.517Z,101470.17
2023-02-11T09:04:13.153Z,101470.80
2023-02-11T09:06:41.494Z,101469.36
2023-02-11T09:09:13.750Z,101467.28
2023-02-11T09:11:43.177Z,101458.35
2023-02-11T09:14:20.518Z,101458.56
2023-02-11T09:16:49.112Z,101476.21
2023-02-11T09:19:18.235Z,101487.82
2023-02-11T09:21:46.865Z,101484.34
2023-02-11T09:24:15.177Z,101487.14
2023-02-11T09:26:43.613Z,101487.32
2023-02-11T09:29:11.684Z,101480.38
2023-02-11T09:31:39.837Z,101472.41
2023-02-11T09:34:08.015Z,101474.43
2023-02-11T09:36:38.624Z,101473.71
2023-02-11T09:39:09.992Z,101476.34
2023-02-11T09:42:19.924Z,101475.32
2023-02-11T09:44:48.100Z,101479.38
2023-02-11T09:47:27.058Z,101473.98
2023-02-11T09:50:02.499Z,101470.58
2023-02-11T09:52:44.069Z,101474.98
2023-02-11T09:55:21.974Z,101472.80
2023-02-11T09:57:50.134Z,101471.46
2023-02-11T10:00:43.334Z,101465.34
2023-02-11T10:03:21.836Z,101462.02
2023-02-11T10:05:52.566Z,101456.46
2023-02-11T10:08:47.502Z,101456.84
2023-02-11T10:11:31.194Z,101458.31
2023-02-11T10:14:29.164Z,101455.39
2023-02-11T10:17:28.057Z,101449.77
2023-02-11T10:20:18.067Z,101452.30
2023-02-11T10:22:50.143Z,101449.93
2023-02-11T10:25:43.659Z,101455.19
2023-02-11T10:28:17.150Z,101451.92
2023-02-11T10:30:59.588Z,101442.92
2023-02-11T10:33:36.937Z,101440.40
2023-02-11T10:36:05.756Z,101447.05
2023-02-11T10:38:34.103Z,101451.16
2023-02-11T10:41:02.325Z,101450.79
2023-02-11T10:43:32.132Z,101451.78
2023-02-11T10:46:02.938Z,101459.31
2023-02-11T10:48:41.976Z,101464.27
2023-02-11T10:51:19.062Z,101463.66
2023-02-11T10:54:19.483Z,101468.41
2023-02-11T10:56:58.569Z,101468.79
2023-02-11T10:59:30.996Z,101469.31
2023-02-11T11:02:08.143Z,101465.33
2023-02-11T11:04:45.821Z,101468.42
2023-02-11T11:07:27.556Z,101466.46
2023-02-11T11:10:00.382Z,101467.98
2023-02-11T11:12:28.304Z,101467.45
2023-02-11T11:15:01.931Z,101465.39
2023-02-11T11:17:29.994Z,101468.31
2023-02-11T11:20:35.675Z,101470.05
2023-02-11T11:23:09.636Z,101475.69
2023-02-11T11:25:41.935Z,101478.83
2023-02-11T11:28:21.865Z,101480.94
2023-02-11T11:30:50.855Z,101479.02
2023-02-11T11:33:23.026Z,101481.06
2023-02-11T11:36:11.640Z,101478.62
2023-02-11T11:38:58.888Z,101487.38
2023-02-11T11:41:30.879Z,101487.98
2023-02-11T11:44:00.471Z,101493.11
2023-02-11T11:46:32.064Z,101492.35
2023-02-11T11:49:36.010Z,101495.71
2023-02-11T11:52:19.678Z,101496.95
2023-02-11T11:54:56.008Z,101501.14
2023-02-11T11:57:28.863Z,101499.45
2023-02-11T11:59:58.359Z,101501.61
2023-02-11T12:03:08.509Z,101502.79
2023-02-11T12:05:47.070Z,101502.93
2023-02-11T12:08:46.180Z,101509.27
2023-02-11T12:11:16.913Z,101506.21
2023-02-11T12:14:03.719Z,101507.53
2023-02-11T12:16:50.565Z,101513.20
2023-02-11T12:19:45.754Z,101519.08
2023-02-11T12:22:34.625Z,101522.02
2023-02-11T12:25:05.227Z,101516.59
2023-02-11T12:28:01.990Z,101521.29
2023-02-11T12:30:54.526Z,101528.02
2023-02-11T12:33:48.477Z,101526.77
2023-02-11T12:36:41.343Z,101527.08
2023-02-11T12:39:12.086Z,101531.19
2023-02-11T12:42:34.512Z,101531.98
2023-02-11T12:45:11.524Z,101531.18
2023-02-11T12:48:05.783Z,101540.86
2023-02-11T12:50:49.503Z,101544.20
2023-02-11T12:53:49.638Z,101546.22
2023-02-11T12:57:05.629Z,101554.75
2023-02-11T12:59:58.943Z,101556.48
2023-02-11T13:02:41.927Z,101557.93
2023-02-11T13:05:49.594Z,101559.36
2023-02-11T13:08:35.490Z,101572.58
2023-02-11T13:11:16.177Z,101576.81
2023-02-11T13:13:53.245Z,101576.71
2023-02-11T13:16:31.119Z,101580.09
2023-02-11T13:19:07.319Z,101578.45
2023-02-11T13:21:54.420Z,101584.55
2023-02-11T13:24:41.039Z,101584.40
2023-02-11T13:27:27.430Z,101594.98
2023-02-11T13:30:04.420Z,101602.11
2023-02-11T13:32:54.238Z,101603.75
2023-02-11T13:35:40.237Z,101604.16
2023-02-11T13:38:17.365Z,101612.01
2023-02-11T13:40:45.956Z,101612.73
2023-02-11T13:43:26.125Z,101619.24
2023-02-11T13:46:10.436Z,101623.61
2023-02-11T13:48:46.914Z,101624.14
2023-02-11T13:51:34.537Z,101629.73
2023-02-11T13:54:03.950Z,101636.70
2023-02-11T13:56:38.079Z,101639.88
2023-02-11T13:59:27.493Z,101638.55
2023-02-11T14:02:39.776Z,101640.02
2023-02-11T14:05:26.125Z,101643.99
2023-02-11T14:08:28.184Z,101641.61
2023-02-11T14:11:01.022Z,101653.11
2023-02-11T14:13:31.917Z,101651.29
2023-02-11T14:16:36.522Z,101661.05
2023-02-11T14:19:06.519Z,101667.63
2023-02-11T14:21:38.251Z,101675.35
2023-02-11T14:24:07.245Z,101685.84
2023-02-11T14:26:58.628Z,101698.04
2023-02-11T14:29:38.703Z,101704.45
2023-02-11T14:32:41.073Z,101712.43
2023-02-11T14:35:20.897Z,101718.24
2023-02-11T14:37:56.672Z,101728.16
2023-02-11T14:40:49.295Z,101734.26
2023-02-11T14:43:24.438Z,101744.66
2023-02-11T14:45:55.946Z,101751.95
2023-02-11T14:48:35.165Z,101758.05
2023-02-11T14:51:25.875Z,101771.45
2023-02-11T14:53:59.393Z,101788.80
2023-02-11T14:56:31.261Z,101793.62
2023-02-11T14:58:59.240Z,101798.95
2023-02-11T15:01:35.849Z,101802.50
2023-02-11T15:04:06.510Z,101811.09
2023-02-11T15:06:39.454Z,101819.04
2023-02-11T15:09:18.634Z,101829.54
2023-02-11T15:11:51.297Z,101834.27
2023-02-11T15:14:28.496Z,101845.60
2023-02-11T15:17:09.752Z,101856.60
2023-02-11T15:19:45.020Z,101862.55
2023-02-11T15:22:34.393Z,101867.14
2023-02-11T15:25:16.816Z,101872.09
2023-02-11T15:27:50.202Z,101881.44
2023-02-11T15:30:25.022Z,101883.97
2023-02-11T15:33:00.179Z,101890.62
2023-02-11T15:35:36.830Z,101895.19
2023-02-11T15:38:05.815Z,101902.52
2023-02-11T15:40:36.573Z,101913.02
2023-02-11T15:43:07.771Z,101919.51
2023-02-11T15:45:40.316Z,101918.97
2023-02-11T15:48:20.286Z,101929.01
2023-02-11T15:50:54.451Z,101938.99
2023-02-11T15:53:28.707Z,101939.38
2023-02-11T15:56:25.610Z,101946.86
2023-02-11T15:58:56.114Z,101954.02
2023-02-11T16:01:34.860Z,101960.09
2023-02-11T16:04:05.486Z,101967.60
2023-02-11T16:06:42.168Z,101979.44
2023-02-11T16:09:12.766Z,101984.78
2023-02-11T16:11:46.521Z,101996.74
2023-02-11T16:14:42.393Z,102004.90
2023-02-11T16:17:25.034Z,102020.70
2023-02-11T16:19:54.663Z,102028.55
2023-02-11T16:22:27.645Z,102030.92
2023-02-11T16:24:59.628Z,102035.86
2023-02-11T16:27:34.152Z,102045.45
2023-02-11T16:30:02.894Z,102051.92
2023-02-11T16:32:31.643Z,102062.81
2023-02-11T16:35:01.499Z,102077.83
2023-02-11T16:37:29.562Z,102083.02
2023-02-11T16:39:58.363Z,102094.22
2023-02-11T16:42:26.477Z,102100.70
2023-02-11T16:44:54.486Z,102098.59
2023-02-11T16:47:27.891Z,102108.45
2023-02-11T16:49:56.300Z,102111.46
2023-02-11T16:52:24.729Z,102124.33
2023-02-11T16:54:53.619Z,102137.48
2023-02-11T16:57:24.784Z,102148.94
2023-02-11T16:59:53.379Z,102161.04
2023-02-11T17:02:34.023Z,102163.05
2023-02-11T17:05:05.353Z,102167.78
2023-02-11T17:07:33.860Z,102175.28
2023-02-11T17:10:02.274Z,102182.23
2023-02-11T17:12:30.298Z,102191.20
2023-02-11T17:14:58.279Z,102207.02
2023-02-11T17:17:26.329Z,102216.45
2023-02-11T17:19:54.265Z,102221.65
2023-02-11T17:22:22.364Z,102229.50
2023-02-11T17:24:51.065Z,102244.33
2023-02-11T17:27:19.038Z,102254.02
2023-02-11T17:29:47.202Z,102261.26
2023-02-11T17:32:15.253Z,102271.61
2023-02-11T17:34:43.341Z,102276.36
2023-02-11T17:37:11.334Z,102288.95
2023-02-11T17:39:40.075Z,102297.40
2023-02-11T17:42:08.918Z,102298.73
2023-02-11T17:44:37.457Z,102312.14
2023-02-11T17:47:05.528Z,102317.48
2023-02-11T17:49:33.721Z,102322.20
2023-02-11T17:52:01.890Z,102323.88
2023-02-11T17:54:30.085Z,102322.77
2023-02-11T17:56:58.640Z,102326.48
2023-02-11T17:59:29.976Z,102332.60
2023-02-11T18:01:58.160Z,102340.51
2023-02-11T18:04:26.304Z,102340.30
2023-02-11T18:06:54.394Z,102350.52
2023-02-11T18:09:22.417Z,102353.34
2023-02-11T18:11:52.643Z,102359.88
2023-02-11T18:14:23.015Z,102368.11
2023-02-11T18:16:52.682Z,102369.11
2023-02-11T18:19:20.891Z,102366.66
2023-02-11T18:21:50.521Z,102371.80
2023-02-11T18:24:18.985Z,102372.34
2023-02-11T18:26:47.052Z,102379.93
2023-02-11T18:29:15.120Z,102384.70
2023-02-11T18:31:43.148Z,102388.23
2023-02-11T18:34:11.468Z,102395.53
2023-02-11T18:36:39.743Z,102400.93
2023-02-11T18:39:08.039Z,102406.03
2023-02-11T18:41:36.037Z,102415.18
2023-02-11T18:44:05.302Z,102429.31
2023-02-11T18:46:33.310Z,102439.21
2023-02-11T18:49:02.052Z,102447.05
2023-02-11T18:51:32.572Z,102454.91
2023-02-11T18:54:01.508Z,102458.39
2023-02-11T18:56:29.611Z,102463.36
2023-02-11T18:58:58.385Z,102472.78
2023-02-11T19:01:28.071Z,102482.20
2023-02-11T19:03:58.616Z,102484.70
2023-02-11T19:06:29.046Z,102487.61
2023-02-11T19:09:00.202Z,102492.77
2023-02-11T19:11:49.986Z,102501.45
2023-02-11T19:14:22.173Z,102508.58
2023-02-11T19:16:52.975Z,102514.89
2023-02-11T19:19:25.711Z,102522.48
2023-02-11T19:21:54.847Z,102529.17
2023-02-11T19:24:24.252Z,102537.70
2023-02-11T19:26:57.066Z,102538.80
2023-02-11T19:29:25.617Z,102546.40
2023-02-11T19:31:54.475Z,102546.86
2023-02-11T19:34:22.543Z,102557.70
2023-02-11T19:36:51.052Z,102563.40
2023-02-11T19:39:19.255Z,102565.06
2023-02-11T19:41:47.434Z,102569.77
2023-02-11T19:44:16.293Z,102578.67
2023-02-11T19:46:46.107Z,102587.72
2023-02-11T19:49:17.896Z,102593.92
2023-02-11T19:51:46.835Z,102606.00
2023-02-11T19:54:14.846Z,102605.80
2023-02-11T19:56:44.883Z,102609.01
2023-02-11T19:59:13.967Z,102616.34
2023-02-11T20:01:42.391Z,102624.73
2023-02-11T20:04:10.917Z,102635.62
2023-02-11T20:06:38.986Z,102639.04
2023-02-11T20:09:11.322Z,102641.03
2023-02-11T20:11:40.156Z,102636.97
2023-02-11T20:14:10.686Z,102644.55
2023-02-11T20:16:48.282Z,102653.23
2023-02-11T20:19:20.562Z,102658.61
2023-02-11T20:21:52.253Z,102659.94
2023-02-11T20:24:21.732Z,102668.36
2023-02-11T20:26:49.902Z,102672.70
2023-02-11T20:29:18.623Z,102674.94
2023-02-11T20:31:46.994Z,102681.97
2023-02-11T20:34:17.760Z,102688.13
2023-02-11T20:36:52.126Z,102691.83
2023-02-11T20:39:22.560Z,102699.36
2023-02-11T20:41:52.576Z,102695.33
2023-02-11T20:44:24.446Z,102701.77
2023-02-11T20:46:54.566Z,102707.50
2023-02-11T20:49:24.977Z,102729.10
2023-02-11T20:51:54.046Z,102733.56
2023-02-11T20:54:23.571Z,102733.67
2023-02-11T20:56:53.893Z,102739.52
2023-02-11T20:59:24.682Z,102736.05
2023-02-11T21:01:55.706Z,102747.61
2023-02-11T21:04:30.478Z,102755.98
2023-02-11T21:07:01.635Z,102769.30
2023-02-11T21:09:33.357Z,102778.85
2023-02-11T21:12:01.993Z,102786.15
2023-02-11T21:14:30.448Z,102782.95
2023-02-11T21:16:58.999Z,102784.77
2023-02-11T21:19:27.351Z,102793.30
2023-02-11T21:21:57.412Z,102796.48
2023-02-11T21:24:25.674Z,102795.85
2023-02-11T21:26:53.835Z,102795.51
2023-02-11T21:29:22.388Z,102800.33
2023-02-11T21:31:51.508Z,102804.46
2023-02-11T21:34:20.280Z,102802.59
2023-02-11T21:36:51.208Z,102804.98
2023-02-11T21:39:20.491Z,102805.48
2023-02-11T21:41:48.770Z,102814.06
2023-02-11T21:44:16.846Z,102819.41
2023-02-11T21:46:44.868Z,102828.01
2023-02-11T21:49:12.992Z,102830.33
2023-02-11T21:51:40.953Z,102833.73
2023-02-11T21:54:11.303Z,102835.36
2023-02-11T21:56:39.300Z,102848.16
2023-02-11T21:59:07.461Z,102850.15
2023-02-11T22:01:36.022Z,102854.64
2023-02-11T22:04:04.303Z,102846.00
2023-02-11T22:06:34.637Z,102843.98
2023-02-11T22:09:05.674Z,102860.55
2023-02-11T22:11:33.692Z,102864.32
2023-02-11T22:14:01.750Z,102869.64
2023-02-11T22:16:30.848Z,102881.66
2023-02-11T22:18:59.779Z,102891.02
2023-02-11T22:21:28.193Z,102895.02
2023-02-11T22:23:56.589Z,102901.93
2023-02-11T22:26:26.590Z,102905.64
2023-02-11T22:28:55.565Z,102903.80
2023-02-11T22:31:30.169Z,102906.50
2023-02-11T22:33:59.096Z,102914.83
2023-02-11T22:36:30.115Z,102921.15
2023-02-11T22:39:08.386Z,102922.36
2023-02-11T22:41:38.452Z,102929.34
2023-02-11T22:44:06.766Z,102939.79
2023-02-11T22:46:35.559Z,102939.84
2023-02-11T22:49:05.291Z,102936.77
2023-02-11T22:51:33.898Z,102932.24
2023-02-11T22:54:05.039Z,102930.84
2023-02-11T22:56:35.020Z,102933.05
2023-02-11T22:59:06.305Z,102929.80
2023-02-11T23:01:35.167Z,102928.86
2023-02-11T23:04:05.776Z,102929.10
2023-02-11T23:06:34.807Z,102938.67
2023-02-11T23:09:04.786Z,102928.33
2023-02-11T23:11:33.601Z,102939.16
2023-02-11T23:14:02.594Z,102945.75
2023-02-11T23:16:33.059Z,102944.36
2023-02-11T23:19:05.205Z,102946.23
2023-02-11T23:21:35.889Z,102944.36
2023-02-11T23:24:08.174Z,102947.45
2023-02-11T23:26:39.405Z,102955.23
2023-02-11T23:29:08.153Z,102955.95
2023-02-11T23:31:39.999Z,102962.60
2023-02-11T23:34:08.870Z,102971.27
2023-02-11T23:36:37.686Z,102975.37
2023-02-11T23:39:06.099Z,102963.78
2023-02-11T23:41:34.152Z,102969.67
2023-02-11T23:44:02.237Z,102990.20
2023-02-11T23:46:30.295Z,102997.66
2023-02-11T23:48:58.329Z,102999.13
2023-02-11T23:51:26.292Z,103008.45
2023-02-11T23:53:56.416Z,103006.69
2023-02-11T23:56:27.835Z,103017.05
2023-02-11T23:58:58.765Z,103028.67
